createdAt,value
2023-02-23T00:02:03.592Z,-5.37
2023-02-23T00:04:33.300Z,-5.43
2023-02-23T00:07:01.006Z,-5.43
2023-02-23T00:09:36.921Z,-5.45
2023-02-23T00:12:08.633Z,-5.46
2023-02-23T00:14:37.258Z,-5.47
2023-02-23T00:17:05.060Z,-5.46
2023-02-23T00:19:33.206Z,-5.39
2023-02-23T00:22:03.012Z,-5.28
2023-02-23T00:24:30.675Z,-5.19
2023-02-23T00:27:06.114Z,-5.18
2023-02-23T00:29:39.102Z,-5.20
2023-02-23T00:32:06.997Z,-5.18
2023-02-23T00:34:37.064Z,-5.18
2023-02-23T00:37:04.753Z,-5.19
2023-02-23T00:39:33.643Z,-5.20
2023-02-23T00:42:02.711Z,-5.23
2023-02-23T00:44:33.479Z,-5.28
2023-02-23T00:47:01.344Z,-5.32
2023-02-23T00:49:28.694Z,-5.35
2023-02-23T00:51:56.354Z,-5.36
2023-02-23T00:54:24.221Z,-5.36
2023-02-23T00:56:51.600Z,-5.41
2023-02-23T00:59:21.700Z,-5.47
2023-02-23T01:01:49.569Z,-5.48
2023-02-23T01:04:22.728Z,-5.47
2023-02-23T01:06:49.900Z,-5.41
2023-02-23T01:09:27.597Z,-5.36
2023-02-23T01:11:57.249Z,-5.34
2023-02-23T01:14:24.456Z,-5.32
2023-02-23T01:16:52.126Z,-5.34
2023-02-23T01:19:19.572Z,-5.36
2023-02-23T01:21:50.111Z,-5.38
2023-02-23T01:24:18.585Z,-5.42
2023-02-23T01:26:46.557Z,-5.47
2023-02-23T01:29:16.565Z,-5.51
2023-02-23T01:31:46.002Z,-5.55
2023-02-23T01:34:22.953Z,-5.60
2023-02-23T01:36:51.027Z,-5.64
2023-02-23T01:39:19.405Z,-5.69
2023-02-23T01:41:46.506Z,-5.75
2023-02-23T01:44:16.081Z,-5.79
2023-02-23T01:46:48.950Z,-5.84
2023-02-23T01:49:19.735Z,-5.88
2023-02-23T01:51:49.688Z,-5.90
2023-02-23T01:54:24.402Z,-5.94
2023-02-23T01:56:57.710Z,-5.97
2023-02-23T01:59:29.696Z,-6.01
2023-02-23T02:01:57.500Z,-6.04
2023-02-23T02:04:27.655Z,-6.01
2023-02-23T02:07:00.845Z,-5.95
2023-02-23T02:09:28.203Z,-5.83
2023-02-23T02:11:57.088Z,-5.71
2023-02-23T02:14:28.074Z,-5.65
2023-02-23T02:17:22.418Z,-5.63
2023-02-23T02:19:55.711Z,-5.67
2023-02-23T02:23:10.899Z,-5.74
2023-02-23T02:26:20.634Z,-5.89
2023-02-23T02:29:19.432Z,-6.02
2023-02-23T02:31:56.764Z,-6.07
2023-02-23T02:34:23.970Z,-6.13
2023-02-23T02:37:29.062Z,-6.18
2023-02-23T02:40:17.656Z,-6.25
2023-02-23T02:42:48.491Z,-6.32
2023-02-23T02:45:34.693Z,-6.33
2023-02-23T02:48:47.972Z,-6.30
2023-02-23T02:51:54.288Z,-6.18
2023-02-23T02:54:21.549Z,-6.05
2023-02-23T02:56:49.665Z,-5.98
2023-02-23T02:59:38.082Z,-5.95
2023-02-23T03:02:24.670Z,-6.01
2023-02-23T03:05:10.759Z,-6.08
2023-02-23T03:08:04.128Z,-6.18
2023-02-23T03:11:12.445Z,-6.30
2023-02-23T03:14:21.580Z,-6.43
2023-02-23T03:17:18.731Z,-6.56
2023-02-23T03:20:13.528Z,-6.65
2023-02-23T03:23:14.068Z,-6.67
2023-02-23T03:26:06.705Z,-6.68
2023-02-23T03:29:20.493Z,-6.59
2023-02-23T03:32:24.807Z,-6.43
2023-02-23T03:35:24.897Z,-6.34
2023-02-23T03:38:16.222Z,-6.37
2023-02-23T03:41:03.019Z,-6.38
2023-02-23T03:43:51.980Z,-6.41
2023-02-23T03:46:39.301Z,-6.53
2023-02-23T03:49:26.430Z,-6.64
2023-02-23T03:52:25.314Z,-6.82
2023-02-23T03:55:16.322Z,-6.96
2023-02-23T03:58:06.309Z,-7.01
2023-02-23T04:00:55.574Z,-6.99
2023-02-23T04:03:41.792Z,-6.94
2023-02-23T04:06:30.840Z,-6.84
2023-02-23T04:09:18.197Z,-6.70
2023-02-23T04:12:21.986Z,-6.56
2023-02-23T04:14:59.966Z,-6.46
2023-02-23T04:17:27.932Z,-6.40
2023-02-23T04:19:55.907Z,-6.39
2023-02-23T04:22:23.674Z,-6.40
2023-02-23T04:24:51.330Z,-6.54
2023-02-23T04:27:18.652Z,-6.68
2023-02-23T04:29:46.449Z,-6.80
2023-02-23T04:32:15.880Z,-6.90
2023-02-23T04:34:43.740Z,-6.99
2023-02-23T04:37:11.244Z,-7.08
2023-02-23T04:39:39.251Z,-7.12
2023-02-23T04:42:06.728Z,-7.11
2023-02-23T04:44:35.696Z,-7.01
2023-02-23T04:47:03.870Z,-6.79
2023-02-23T04:49:32.762Z,-6.52
2023-02-23T04:52:00.121Z,-6.29
2023-02-23T04:54:28.411Z,-6.15
2023-02-23T04:56:55.953Z,-6.05
2023-02-23T04:59:23.515Z,-5.90
2023-02-23T05:01:50.968Z,-5.77
2023-02-23T05:04:20.984Z,-5.66
2023-02-23T05:06:49.054Z,-5.56
2023-02-23T05:09:18.869Z,-5.44
2023-02-23T05:11:47.760Z,-5.31
2023-02-23T05:14:15.316Z,-5.20
2023-02-23T05:16:45.744Z,-5.16
2023-02-23T05:19:13.241Z,-5.04
2023-02-23T05:21:44.345Z,-4.91
2023-02-23T05:24:13.850Z,-4.71
2023-02-23T05:26:41.439Z,-4.46
2023-02-23T05:29:10.215Z,-4.19
2023-02-23T05:31:38.636Z,-3.92
2023-02-23T05:34:06.440Z,-3.61
2023-02-23T05:36:34.203Z,-3.38
2023-02-23T05:39:05.968Z,-3.11
2023-02-23T05:41:39.355Z,-2.75
2023-02-23T05:44:08.346Z,-2.57
2023-02-23T05:46:36.977Z,-2.40
2023-02-23T05:49:12.374Z,-2.20
2023-02-23T05:51:40.752Z,-1.95
2023-02-23T05:54:09.252Z,-1.76
2023-02-23T05:56:40.073Z,-1.62
2023-02-23T05:59:07.706Z,-1.38
2023-02-23T06:01:38.838Z,-1.07
2023-02-23T06:04:07.707Z,-0.83
2023-02-23T06:06:39.433Z,-0.68
2023-02-23T06:09:10.572Z,-0.48
2023-02-23T06:11:38.545Z,-0.55
2023-02-23T06:14:06.005Z,-0.50
2023-02-23T06:16:38.364Z,-0.39
2023-02-23T06:19:07.000Z,-0.28
2023-02-23T06:21:34.540Z,-0.38
2023-02-23T06:24:02.409Z,-0.33
2023-02-23T06:26:30.656Z,-0.06
2023-02-23T06:28:59.131Z,0.07
2023-02-23T06:31:27.307Z,0.13
2023-02-23T06:33:55.068Z,0.33
2023-02-23T06:36:23.492Z,0.38
2023-02-23T06:38:50.837Z,0.23
2023-02-23T06:41:19.462Z,0.48
2023-02-23T06:43:47.055Z,0.88
2023-02-23T06:46:14.521Z,1.08
2023-02-23T06:48:42.063Z,1.23
2023-02-23T06:51:09.655Z,1.50
2023-02-23T06:53:37.084Z,1.68
2023-02-23T06:56:06.479Z,1.79
2023-02-23T06:58:34.147Z,1.70
2023-02-23T07:01:02.524Z,1.56
2023-02-23T07:03:29.972Z,1.44
2023-02-23T07:05:58.051Z,1.49
2023-02-23T07:08:26.731Z,1.47
2023-02-23T07:10:54.018Z,1.37
2023-02-23T07:13:26.488Z,1.24
2023-02-23T07:15:56.906Z,1.18
2023-02-23T07:18:24.038Z,0.96
2023-02-23T07:20:52.717Z,0.75
2023-02-23T07:23:22.019Z,0.87
2023-02-23T07:25:54.708Z,1.09
2023-02-23T07:28:22.455Z,1.12
2023-02-23T07:30:49.934Z,1.35
2023-02-23T07:33:18.542Z,1.45
2023-02-23T07:35:46.176Z,1.47
2023-02-23T07:38:15.981Z,1.36
2023-02-23T07:40:43.225Z,1.29
2023-02-23T07:43:12.773Z,1.38
2023-02-23T07:45:41.349Z,1.39
2023-02-23T07:48:09.388Z,1.22
2023-02-23T07:50:40.087Z,1.35
2023-02-23T07:53:07.406Z,1.47
2023-02-23T07:55:34.628Z,1.23
2023-02-23T07:58:02.187Z,0.90
2023-02-23T08:00:29.643Z,0.52
2023-02-23T08:02:57.103Z,0.17
2023-02-23T08:05:26.637Z,-0.09
2023-02-23T08:07:58.568Z,-0.13
2023-02-23T08:10:26.347Z,-0.02
2023-02-23T08:12:54.967Z,-0.05
2023-02-23T08:15:22.592Z,-0.04
2023-02-23T08:17:54.133Z,-0.23
2023-02-23T08:20:22.506Z,-0.17
2023-02-23T08:22:56.696Z,-0.38
2023-02-23T08:25:24.080Z,-0.39
2023-02-23T08:27:54.297Z,-0.39
2023-02-23T08:30:23.494Z,-0.41
2023-02-23T08:32:51.071Z,-0.55
2023-02-23T08:35:19.799Z,-0.74
2023-02-23T08:37:46.891Z,-0.83
2023-02-23T08:40:20.389Z,-0.77
2023-02-23T08:42:54.096Z,-0.83
2023-02-23T08:45:21.651Z,-0.91
2023-02-23T08:48:46.146Z,-1.07
2023-02-23T08:51:17.078Z,-1.35
2023-02-23T08:53:44.742Z,-1.50
2023-02-23T08:56:13.021Z,-1.57
2023-02-23T08:58:40.883Z,-1.70
2023-02-23T09:01:18.138Z,-1.76
2023-02-23T09:03:45.530Z,-1.73
2023-02-23T09:06:15.446Z,-1.68
2023-02-23T09:08:42.690Z,-1.80
2023-02-23T09:11:10.354Z,-1.96
2023-02-23T09:13:37.602Z,-1.96
2023-02-23T09:16:07.289Z,-1.94
2023-02-23T09:18:34.873Z,-2.12
2023-02-23T09:21:08.181Z,-2.21
2023-02-23T09:23:35.524Z,-2.23
2023-02-23T09:26:07.502Z,-2.23
2023-02-23T09:28:38.429Z,-2.17
2023-02-23T09:31:10.900Z,-2.22
2023-02-23T09:33:39.581Z,-2.23
2023-02-23T09:36:17.391Z,-2.13
2023-02-23T09:38:46.069Z,-2.06
2023-02-23T09:41:25.505Z,-2.12
2023-02-23T09:44:11.705Z,-2.24
2023-02-23T09:47:00.249Z,-2.31
2023-02-23T09:49:29.009Z,-2.33
2023-02-23T09:51:58.439Z,-2.31
2023-02-23T09:54:29.309Z,-2.38
2023-02-23T09:56:57.972Z,-2.46
2023-02-23T09:59:25.222Z,-2.50
2023-02-23T10:02:22.281Z,-2.57
2023-02-23T10:04:52.186Z,-2.73
2023-02-23T10:07:50.362Z,-2.79
2023-02-23T10:10:27.684Z,-2.75
2023-02-23T10:13:15.686Z,-2.66
2023-02-23T10:15:55.536Z,-2.67
2023-02-23T10:18:51.266Z,-2.68
2023-02-23T10:21:39.604Z,-2.65
2023-02-23T10:24:17.092Z,-2.69
2023-02-23T10:26:54.451Z,-2.70
2023-02-23T10:29:25.624Z,-2.67
2023-02-23T10:32:07.843Z,-2.64
2023-02-23T10:34:36.447Z,-2.64
2023-02-23T10:37:05.617Z,-2.69
2023-02-23T10:39:33.063Z,-2.70
2023-02-23T10:42:03.473Z,-2.68
2023-02-23T10:44:31.371Z,-2.69
2023-02-23T10:47:07.525Z,-2.73
2023-02-23T10:49:49.208Z,-2.78
2023-02-23T10:52:28.878Z,-2.81
2023-02-23T10:54:56.511Z,-2.82
2023-02-23T10:57:24.533Z,-2.86
2023-02-23T11:00:17.023Z,-2.87
2023-02-23T11:02:44.688Z,-2.87
2023-02-23T11:05:34.471Z,-2.83
2023-02-23T11:08:11.733Z,-2.84
2023-02-23T11:10:39.724Z,-2.83
2023-02-23T11:13:26.316Z,-2.85
2023-02-23T11:16:15.130Z,-2.88
2023-02-23T11:18:54.177Z,-2.94
2023-02-23T11:21:26.721Z,-2.94
2023-02-23T11:23:55.734Z,-2.90
2023-02-23T11:26:28.262Z,-2.90
2023-02-23T11:29:02.031Z,-2.93
2023-02-23T11:31:34.213Z,-2.94
2023-02-23T11:34:03.635Z,-2.93
2023-02-23T11:36:37.142Z,-2.92
2023-02-23T11:39:07.866Z,-2.97
2023-02-23T11:41:36.617Z,-2.98
2023-02-23T11:44:06.033Z,-2.99
2023-02-23T11:46:37.525Z,-3.00
2023-02-23T11:49:08.872Z,-3.01
2023-02-23T11:51:38.296Z,-2.96
2023-02-23T11:54:06.636Z,-2.93
2023-02-23T11:56:34.105Z,-2.96
2023-02-23T11:59:07.184Z,-2.96
2023-02-23T12:01:44.145Z,-2.96
2023-02-23T12:04:24.010Z,-2.96
2023-02-23T12:07:12.560Z,-2.93
2023-02-23T12:09:40.323Z,-2.91
2023-02-23T12:12:11.059Z,-2.86
2023-02-23T12:14:49.583Z,-2.85
2023-02-23T12:17:41.614Z,-2.87
2023-02-23T12:20:24.327Z,-2.86
2023-02-23T12:22:58.436Z,-2.85
2023-02-23T12:25:53.967Z,-2.86
2023-02-23T12:28:58.476Z,-2.90
2023-02-23T12:31:40.193Z,-2.86
2023-02-23T12:34:22.272Z,-2.86
2023-02-23T12:36:50.033Z,-2.86
2023-02-23T12:39:36.030Z,-2.89
2023-02-23T12:42:22.250Z,-2.89
2023-02-23T12:44:51.716Z,-2.91
2023-02-23T12:47:48.809Z,-2.92
2023-02-23T12:50:22.106Z,-2.86
2023-02-23T12:53:01.300Z,-2.85
2023-02-23T12:55:37.972Z,-2.86
2023-02-23T12:58:24.673Z,-2.90
2023-02-23T13:01:16.461Z,-2.89
2023-02-23T13:03:50.101Z,-2.89
2023-02-23T13:06:46.850Z,-2.88
2023-02-23T13:09:27.412Z,-2.91
2023-02-23T13:12:10.332Z,-2.90
2023-02-23T13:14:52.948Z,-2.90
2023-02-23T13:17:26.751Z,-2.90
2023-02-23T13:19:58.407Z,-2.92
2023-02-23T13:22:37.367Z,-2.93
2023-02-23T13:25:17.488Z,-2.95
2023-02-23T13:27:50.226Z,-2.95
2023-02-23T13:30:20.422Z,-2.96
2023-02-23T13:32:47.892Z,-2.99
2023-02-23T13:35:17.315Z,-3.00
2023-02-23T13:37:47.365Z,-2.99
2023-02-23T13:40:46.396Z,-2.99
2023-02-23T13:43:30.742Z,-3.01
2023-02-23T13:46:07.245Z,-2.99
2023-02-23T13:48:58.834Z,-3.01
2023-02-23T13:51:46.467Z,-3.02
2023-02-23T13:54:15.936Z,-3.02
2023-02-23T13:56:51.790Z,-3.02
2023-02-23T13:59:29.719Z,-3.05
2023-02-23T14:01:58.040Z,-3.07
2023-02-23T14:04:34.535Z,-3.11
2023-02-23T14:07:21.868Z,-3.07
2023-02-23T14:10:08.803Z,-3.07
2023-02-23T14:12:40.326Z,-3.07
2023-02-23T14:15:27.652Z,-3.10
2023-02-23T14:17:59.827Z,-3.14
2023-02-23T14:20:36.593Z,-3.17
2023-02-23T14:23:19.535Z,-3.21
2023-02-23T14:26:12.290Z,-3.24
2023-02-23T14:28:50.780Z,-3.25
2023-02-23T14:31:20.395Z,-3.28
2023-02-23T14:33:49.317Z,-3.27
2023-02-23T14:36:20.677Z,-3.25
2023-02-23T14:39:00.695Z,-3.27
2023-02-23T14:41:46.779Z,-3.31
2023-02-23T14:44:29.035Z,-3.32
2023-02-23T14:47:16.209Z,-3.34
2023-02-23T14:49:54.856Z,-3.34
2023-02-23T14:52:32.934Z,-3.36
2023-02-23T14:55:12.673Z,-3.40
2023-02-23T14:57:49.638Z,-3.40
2023-02-23T15:00:28.251Z,-3.42
2023-02-23T15:03:12.275Z,-3.43
2023-02-23T15:05:59.797Z,-3.42
2023-02-23T15:08:30.769Z,-3.45
2023-02-23T15:11:10.927Z,-3.48
2023-02-23T15:13:49.574Z,-3.49
2023-02-23T15:16:22.774Z,-3.50
2023-02-23T15:18:51.417Z,-3.51
2023-02-23T15:21:22.404Z,-3.54
2023-02-23T15:48:17.914Z,-4.06
2023-02-23T15:50:52.942Z,-4.10
2023-02-23T15:53:40.471Z,-4.11
2023-02-23T15:56:13.818Z,-4.13
2023-02-23T15:58:56.412Z,-4.13
2023-02-23T16:01:27.936Z,-4.13
2023-02-23T16:04:06.891Z,-4.12
2023-02-23T16:07:11.378Z,-4.08
2023-02-23T16:09:39.006Z,-4.04
2023-02-23T16:12:15.935Z,-4.02
2023-02-23T16:14:49.645Z,-3.99
2023-02-23T18:04:00.702Z,-5.22
2023-02-23T18:06:30.505Z,-5.25
2023-02-23T18:08:58.371Z,-5.23
2023-02-23T18:11:27.416Z,-5.21
2023-02-23T18:13:55.260Z,-5.18
2023-02-23T18:16:24.922Z,-5.15
2023-02-23T18:18:54.657Z,-5.08
2023-02-23T18:21:22.826Z,-5.01
2023-02-23T18:23:51.505Z,-4.89
2023-02-23T18:26:21.732Z,-4.76
2023-02-23T18:28:49.283Z,-4.65
2023-02-23T18:31:21.265Z,-4.62
2023-02-23T18:33:52.326Z,-4.60
2023-02-23T18:36:26.118Z,-4.60
2023-02-23T18:38:55.506Z,-4.61
2023-02-23T18:41:24.212Z,-4.62
2023-02-23T18:43:53.792Z,-4.63
2023-02-23T18:46:24.873Z,-4.64
2023-02-23T18:48:53.013Z,-4.67
2023-02-23T18:51:22.296Z,-4.72
2023-02-23T18:53:52.738Z,-4.79
2023-02-23T18:56:28.594Z,-4.89
2023-02-23T18:58:58.402Z,-4.97
2023-02-23T19:01:30.462Z,-5.00
2023-02-23T19:04:01.301Z,-4.99
2023-02-23T19:06:30.203Z,-4.92
2023-02-23T19:08:59.390Z,-4.82
2023-02-23T19:11:33.265Z,-4.73
2023-02-23T19:14:03.611Z,-4.66
2023-02-23T19:16:35.641Z,-4.65
2023-02-23T19:19:06.112Z,-4.64
2023-02-23T19:21:38.391Z,-4.66
2023-02-23T19:24:06.355Z,-4.68
2023-02-23T19:26:34.420Z,-4.75
2023-02-23T19:29:02.495Z,-4.87
2023-02-23T19:31:31.591Z,-4.95
2023-02-23T19:34:03.287Z,-4.99
2023-02-23T19:36:33.512Z,-5.03
2023-02-23T19:39:15.607Z,-5.08
2023-02-23T19:41:45.477Z,-5.10
2023-02-23T19:44:17.665Z,-5.03
2023-02-23T19:46:47.754Z,-4.99
2023-02-23T19:49:16.041Z,-4.90
2023-02-23T19:51:44.971Z,-4.80
2023-02-23T19:54:13.021Z,-4.74
2023-02-23T19:56:42.868Z,-4.71
2023-02-23T19:59:10.824Z,-4.78
2023-02-23T20:01:41.100Z,-4.83
2023-02-23T20:04:09.512Z,-4.90
2023-02-23T20:06:40.850Z,-4.97
2023-02-23T20:09:10.046Z,-5.04
2023-02-23T20:11:40.310Z,-5.07
2023-02-23T20:14:08.434Z,-5.09
2023-02-23T20:16:36.894Z,-5.10
2023-02-23T20:19:07.332Z,-5.02
2023-02-23T20:21:37.544Z,-4.93
2023-02-23T20:24:07.696Z,-4.85
2023-02-23T20:26:41.848Z,-4.78
2023-02-23T20:29:14.207Z,-4.75
2023-02-23T20:31:50.143Z,-4.74
2023-02-23T20:34:38.850Z,-4.74
2023-02-23T20:37:13.299Z,-4.80
2023-02-23T20:39:40.903Z,-4.85
2023-02-23T20:42:09.962Z,-4.90
2023-02-23T20:44:43.163Z,-4.93
2023-02-23T20:47:11.247Z,-4.92
2023-02-23T20:49:46.878Z,-4.84
2023-02-23T20:52:16.665Z,-4.73
2023-02-23T20:54:45.513Z,-4.68
2023-02-23T20:57:18.451Z,-4.61
2023-02-23T20:59:47.830Z,-4.54
2023-02-23T21:02:17.508Z,-4.51
2023-02-23T21:04:46.768Z,-4.56
2023-02-23T21:07:14.137Z,-4.59
2023-02-23T21:09:44.279Z,-4.64
2023-02-23T21:12:13.835Z,-4.70
2023-02-23T21:14:49.711Z,-4.75
2023-02-23T21:17:17.393Z,-4.77
2023-02-23T21:19:44.732Z,-4.81
2023-02-23T21:22:16.110Z,-4.79
2023-02-23T21:24:44.350Z,-4.72
2023-02-23T21:27:12.652Z,-4.66
2023-02-23T21:37:36.651Z,-4.69
2023-02-23T21:40:08.785Z,-4.78
2023-02-23T21:42:50.859Z,-4.84
2023-02-23T21:45:19.560Z,-4.89
2023-02-23T21:47:50.085Z,-4.94
2023-02-23T21:50:18.803Z,-4.97
2023-02-23T21:52:52.739Z,-5.00
2023-02-23T21:55:22.083Z,-4.96
2023-02-23T21:57:52.553Z,-4.89
2023-02-23T22:00:21.337Z,-4.79
2023-02-23T22:02:49.613Z,-4.74
2023-02-23T22:05:17.796Z,-4.71
2023-02-23T22:07:54.760Z,-4.69
2023-02-23T22:10:26.048Z,-4.71
2023-02-23T22:13:51.666Z,-4.75
2023-02-23T22:16:41.701Z,-4.80
2023-02-23T22:19:09.206Z,-4.84
2023-02-23T22:21:40.692Z,-4.90
2023-02-23T22:24:10.127Z,-4.97
2023-02-23T22:26:39.976Z,-5.03
2023-02-23T22:29:11.058Z,-5.06
2023-02-23T22:31:42.046Z,-5.06
2023-02-23T22:34:10.308Z,-5.02
2023-02-23T22:36:38.476Z,-4.96
2023-02-23T22:39:07.094Z,-4.94
2023-02-23T22:41:41.984Z,-4.96
2023-02-23T22:44:13.082Z,-4.99
2023-02-23T22:46:42.534Z,-5.02
2023-02-23T22:49:11.110Z,-5.03
2023-02-23T22:51:41.845Z,-5.04
2023-02-23T22:54:09.789Z,-5.06
2023-02-23T22:56:39.216Z,-5.09
2023-02-23T22:59:08.547Z,-5.11
2023-02-23T23:01:39.121Z,-5.04
2023-02-23T23:04:10.788Z,-4.96
2023-02-23T23:06:40.931Z,-4.97
2023-02-23T23:09:16.666Z,-5.00
2023-02-23T23:11:44.944Z,-5.00
2023-02-23T23:14:14.555Z,-5.02
2023-02-23T23:16:51.966Z,-5.04
2023-02-23T23:19:23.246Z,-5.07
2023-02-23T23:22:13.612Z,-5.16
2023-02-23T23:24:45.441Z,-5.21
2023-02-23T23:27:14.225Z,-5.24
2023-02-23T23:29:45.263Z,-5.20
2023-02-23T23:32:16.839Z,-5.11
2023-02-23T23:34:48.482Z,-5.07
2023-02-23T23:37:16.752Z,-5.02
2023-02-23T23:39:46.875Z,-4.95
2023-02-23T23:42:19.889Z,-4.88
2023-02-23T23:44:48.643Z,-4.89
2023-02-23T23:47:18.462Z,-4.97
2023-02-23T23:49:49.729Z,-5.06
2023-02-23T23:52:17.383Z,-5.14
2023-02-23T23:54:47.781Z,-5.16
2023-02-23T23:57:15.683Z,-5.12
2023-02-23T23:59:45.574Z,-5.07
